createdAt,value
2022-09-14T00:01:39.540Z,18.28
2022-09-14T00:04:11.719Z,18.25
2022-09-14T00:06:41.229Z,18.24
2022-09-14T00:09:17.373Z,18.22
2022-09-14T00:11:46.566Z,18.22
2022-09-14T00:14:16.273Z,18.19
2022-09-14T00:16:45.698Z,18.13
2022-09-14T00:19:19.694Z,18.14
2022-09-14T00:21:54.536Z,18.12
2022-09-14T00:24:24.907Z,18.08
2022-09-14T00:26:53.920Z,18.04
2022-09-14T00:29:23.560Z,18.01
2022-09-14T00:31:52.630Z,17.97
2022-09-14T00:34:21.639Z,17.94
2022-09-14T00:36:51.863Z,17.92
2022-09-14T00:39:23.440Z,17.90
2022-09-14T00:41:52.849Z,17.89
2022-09-14T00:44:57.554Z,17.88
2022-09-14T00:47:26.967Z,17.84
2022-09-14T00:49:55.795Z,17.80
2022-09-14T00:52:28.223Z,17.78
2022-09-14T00:55:00.081Z,17.76
2022-09-14T00:57:34.324Z,17.75
2022-09-14T01:00:05.419Z,17.70
2022-09-14T01:02:34.619Z,17.66
2022-09-14T01:05:04.100Z,17.62
2022-09-14T01:07:51.361Z,17.61
2022-09-14T01:10:33.378Z,17.58
2022-09-14T01:13:13.209Z,17.55
2022-09-14T01:15:51.107Z,17.53
2022-09-14T01:18:25.133Z,17.51
2022-09-14T01:20:58.108Z,17.47
2022-09-14T01:23:35.394Z,17.45
2022-09-14T01:26:31.768Z,17.42
2022-09-14T01:29:08.812Z,17.40
2022-09-14T01:31:45.971Z,17.37
2022-09-14T01:34:19.839Z,17.33
2022-09-14T01:36:51.864Z,17.29
2022-09-14T01:39:22.524Z,17.28
2022-09-14T01:41:52.861Z,17.27
2022-09-14T01:44:26.243Z,17.27
2022-09-14T01:47:00.432Z,17.25
2022-09-14T01:49:34.549Z,17.23
2022-09-14T01:52:08.864Z,17.22
2022-09-14T01:54:43.491Z,17.14
2022-09-14T01:57:18.735Z,17.10
2022-09-14T01:59:50.382Z,17.06
2022-09-14T02:02:22.828Z,17.02
2022-09-14T02:04:57.507Z,16.97
2022-09-14T02:07:26.591Z,16.94
2022-09-14T02:09:56.379Z,16.90
2022-09-14T02:12:25.213Z,16.86
2022-09-14T02:14:55.204Z,16.80
2022-09-14T02:17:24.091Z,16.74
2022-09-14T02:19:56.742Z,16.69
2022-09-14T02:22:27.132Z,16.64
2022-09-14T02:24:56.595Z,16.60
2022-09-14T02:27:25.886Z,16.56
2022-09-14T02:29:55.112Z,16.53
2022-09-14T02:32:33.039Z,16.47
2022-09-14T02:35:11.453Z,16.42
2022-09-14T02:37:50.074Z,16.39
2022-09-14T02:40:28.925Z,16.31
2022-09-14T02:43:04.721Z,16.32
2022-09-14T02:45:40.392Z,16.29
2022-09-14T02:48:19.496Z,16.25
2022-09-14T02:50:54.743Z,16.22
2022-09-14T02:53:30.391Z,16.21
2022-09-14T02:56:03.361Z,16.18
2022-09-14T02:58:36.907Z,16.15
2022-09-14T03:01:07.865Z,16.13
2022-09-14T03:03:36.792Z,16.08
2022-09-14T03:06:06.576Z,16.02
2022-09-14T03:08:36.239Z,16.00
2022-09-14T03:11:06.335Z,15.97
2022-09-14T03:13:35.869Z,15.96
2022-09-14T03:16:08.898Z,15.98
2022-09-14T03:18:38.234Z,16.00
2022-09-14T03:21:08.492Z,16.02
2022-09-14T03:23:38.868Z,16.05
2022-09-14T03:26:11.903Z,16.05
2022-09-14T03:28:40.897Z,16.05
2022-09-14T03:31:11.973Z,16.00
2022-09-14T03:33:41.635Z,15.91
2022-09-14T03:36:16.292Z,15.88
2022-09-14T03:38:46.255Z,15.87
2022-09-14T03:41:15.655Z,15.88
2022-09-14T03:43:44.855Z,15.89
2022-09-14T03:46:15.135Z,15.89
2022-09-14T03:48:44.484Z,15.89
2022-09-14T03:51:14.099Z,15.89
2022-09-14T03:53:44.402Z,15.88
2022-09-14T03:56:15.611Z,15.88
2022-09-14T03:58:45.575Z,15.88
2022-09-14T04:01:16.390Z,15.88
2022-09-14T04:03:46.024Z,15.87
2022-09-14T04:06:15.696Z,15.84
2022-09-14T04:08:46.468Z,15.82
2022-09-14T04:11:17.337Z,15.80
2022-09-14T04:13:46.632Z,15.79
2022-09-14T04:16:16.587Z,15.79
2022-09-14T04:18:45.619Z,15.77
2022-09-14T04:21:17.360Z,15.76
2022-09-14T04:24:10.596Z,15.74
2022-09-14T04:26:35.676Z,15.72
2022-09-14T04:29:05.426Z,15.70
2022-09-14T04:31:34.329Z,15.69
2022-09-14T04:34:03.548Z,15.70
2022-09-14T04:36:32.389Z,15.72
2022-09-14T04:39:02.778Z,15.72
2022-09-14T04:41:32.960Z,15.74
2022-09-14T04:44:03.360Z,15.75
2022-09-14T04:46:35.355Z,15.76
2022-09-14T04:49:04.277Z,15.77
2022-09-14T04:51:34.664Z,15.80
2022-09-14T04:54:06.124Z,15.84
2022-09-14T04:56:36.776Z,15.89
2022-09-14T04:59:05.766Z,15.94
2022-09-14T05:01:37.117Z,15.99
2022-09-14T05:04:07.048Z,16.07
2022-09-14T05:06:38.942Z,16.14
2022-09-14T05:09:12.481Z,16.29
2022-09-14T05:11:41.667Z,16.46
2022-09-14T05:14:13.029Z,16.61
2022-09-14T05:16:43.042Z,16.76
2022-09-14T05:19:14.510Z,16.88
2022-09-14T05:21:43.498Z,16.99
2022-09-14T05:24:14.212Z,17.09
2022-09-14T05:26:44.453Z,17.24
2022-09-14T05:29:15.579Z,17.33
2022-09-14T05:31:44.648Z,17.36
2022-09-14T05:34:14.889Z,17.44
2022-09-14T05:36:43.701Z,17.53
2022-09-14T05:39:12.668Z,17.61
2022-09-14T05:41:41.523Z,17.69
2022-09-14T05:44:10.632Z,17.70
2022-09-14T05:46:39.405Z,17.70
2022-09-14T05:49:08.488Z,17.78
2022-09-14T05:51:37.853Z,17.93
2022-09-14T05:54:10.960Z,18.10
2022-09-14T05:56:39.977Z,18.24
2022-09-14T05:59:10.307Z,18.42
2022-09-14T06:01:39.075Z,18.63
2022-09-14T06:04:09.985Z,18.84
2022-09-14T06:06:38.763Z,19.09
2022-09-14T06:09:07.486Z,19.34
2022-09-14T06:11:36.357Z,19.60
2022-09-14T06:14:05.644Z,19.87
2022-09-14T06:16:34.862Z,20.16
2022-09-14T06:19:03.767Z,20.44
2022-09-14T06:21:34.269Z,20.64
2022-09-14T06:24:04.301Z,20.88
2022-09-14T06:26:33.271Z,21.15
2022-09-14T06:29:02.286Z,21.43
2022-09-14T06:31:31.072Z,21.68
2022-09-14T06:33:59.815Z,21.95
2022-09-14T06:36:29.573Z,22.19
2022-09-14T06:39:00.205Z,22.50
2022-09-14T06:41:30.020Z,22.82
2022-09-14T06:44:01.049Z,23.10
2022-09-14T06:46:31.203Z,23.25
2022-09-14T06:49:02.656Z,23.43
2022-09-14T06:51:33.553Z,23.64
2022-09-14T06:54:03.560Z,23.96
2022-09-14T06:56:35.402Z,24.17
2022-09-14T06:59:05.404Z,24.27
2022-09-14T07:01:34.751Z,24.42
2022-09-14T07:04:04.718Z,24.60
2022-09-14T07:06:39.778Z,24.83
2022-09-14T07:09:08.716Z,25.05
2022-09-14T07:11:38.201Z,25.21
2022-09-14T07:14:07.791Z,25.39
2022-09-14T07:16:38.623Z,25.58
2022-09-14T07:19:12.036Z,25.73
2022-09-14T07:21:41.638Z,25.82
2022-09-14T07:24:12.355Z,25.99
2022-09-14T07:26:42.125Z,26.13
2022-09-14T07:29:14.866Z,26.24
2022-09-14T07:31:45.127Z,26.41
2022-09-14T07:34:15.046Z,26.44
2022-09-14T07:36:44.290Z,26.41
2022-09-14T07:39:15.168Z,26.48
2022-09-14T07:41:44.556Z,26.47
2022-09-14T07:44:16.687Z,26.55
2022-09-14T07:46:47.133Z,26.70
2022-09-14T07:49:17.107Z,26.91
2022-09-14T07:51:46.304Z,27.13
2022-09-14T07:54:19.147Z,27.35
2022-09-14T07:56:48.729Z,27.50
2022-09-14T07:59:34.528Z,27.56
2022-09-14T08:02:07.316Z,27.54
2022-09-14T08:04:38.668Z,27.23
2022-09-14T08:07:08.560Z,27.05
2022-09-14T08:09:38.940Z,27.15
2022-09-14T08:12:07.935Z,27.23
2022-09-14T08:14:37.247Z,27.23
2022-09-14T08:17:06.010Z,27.43
2022-09-14T08:19:35.687Z,27.70
2022-09-14T08:22:04.958Z,27.91
2022-09-14T08:24:33.826Z,28.16
2022-09-14T08:27:02.679Z,28.36
2022-09-14T08:29:31.431Z,28.55
2022-09-14T08:32:00.268Z,28.57
2022-09-14T08:34:29.469Z,28.70
2022-09-14T08:36:58.260Z,28.72
2022-09-14T08:39:27.130Z,28.78
2022-09-14T08:41:58.127Z,28.90
2022-09-14T08:44:30.351Z,29.06
2022-09-14T08:47:04.054Z,29.03
2022-09-14T08:49:46.428Z,28.91
2022-09-14T08:52:23.206Z,29.06
2022-09-14T08:54:54.656Z,29.19
2022-09-14T08:57:31.794Z,29.37
2022-09-14T09:00:09.151Z,29.31
2022-09-14T09:02:55.736Z,29.41
2022-09-14T09:05:35.810Z,29.62
2022-09-14T09:08:19.658Z,29.67
2022-09-14T09:10:50.273Z,29.73
2022-09-14T09:13:23.608Z,29.92
2022-09-14T09:15:57.493Z,29.97
2022-09-14T09:18:36.952Z,29.98
2022-09-14T09:21:10.503Z,30.03
2022-09-14T09:23:40.840Z,29.94
2022-09-14T09:26:16.729Z,29.98
2022-09-14T09:28:48.912Z,29.90
2022-09-14T09:31:22.038Z,29.78
2022-09-14T09:33:51.104Z,29.40
2022-09-14T09:36:19.948Z,29.18
2022-09-14T09:38:48.642Z,29.21
2022-09-14T09:41:22.316Z,29.32
2022-09-14T09:44:02.369Z,29.17
2022-09-14T09:46:33.996Z,29.05
2022-09-14T09:49:14.188Z,29.09
2022-09-14T09:51:44.144Z,29.05
2022-09-14T09:54:24.274Z,28.98
2022-09-14T09:56:55.692Z,29.05
2022-09-14T09:59:31.556Z,29.11
2022-09-14T10:02:20.029Z,29.17
2022-09-14T10:04:59.482Z,29.17
2022-09-14T10:07:30.632Z,29.25
2022-09-14T10:10:05.328Z,29.45
2022-09-14T10:12:35.015Z,29.69
2022-09-14T10:15:16.754Z,29.91
2022-09-14T10:18:16.061Z,29.99
2022-09-14T10:21:05.432Z,29.83
2022-09-14T10:23:36.085Z,29.84
2022-09-14T10:26:27.022Z,29.75
2022-09-14T10:29:15.815Z,29.65
2022-09-14T10:31:46.891Z,29.80
2022-09-14T10:34:20.199Z,29.88
2022-09-14T10:36:57.115Z,29.81
2022-09-14T10:39:30.907Z,29.68
2022-09-14T10:42:07.367Z,29.57
2022-09-14T10:44:51.919Z,29.39
2022-09-14T10:47:32.608Z,29.44
2022-09-14T10:50:19.573Z,29.54
2022-09-14T10:53:11.771Z,29.56
2022-09-14T10:55:46.966Z,29.57
2022-09-14T10:58:24.522Z,29.56
2022-09-14T11:01:06.367Z,29.45
2022-09-14T11:03:53.260Z,29.37
2022-09-14T11:06:39.996Z,29.23
2022-09-14T11:09:21.062Z,28.98
2022-09-14T11:12:00.912Z,28.70
2022-09-14T11:14:43.029Z,28.47
2022-09-14T11:17:28.743Z,28.15
2022-09-14T11:20:06.666Z,27.90
2022-09-14T11:22:45.844Z,27.60
2022-09-14T11:25:18.838Z,27.51
2022-09-14T11:27:51.924Z,27.45
2022-09-14T11:30:23.933Z,27.39
2022-09-14T11:32:59.661Z,27.34
2022-09-14T11:35:34.165Z,27.16
2022-09-14T11:38:13.231Z,27.07
2022-09-14T11:40:46.607Z,26.99
2022-09-14T11:43:20.995Z,26.86
2022-09-14T11:45:52.747Z,26.73
2022-09-14T11:48:43.955Z,26.69
2022-09-14T11:51:18.715Z,26.67
2022-09-14T11:53:48.340Z,26.61
2022-09-14T11:56:26.420Z,26.56
2022-09-14T11:58:58.084Z,26.51
2022-09-14T12:01:31.492Z,26.50
2022-09-14T12:04:12.330Z,26.42
2022-09-14T12:06:54.040Z,26.28
2022-09-14T12:09:44.433Z,26.19
2022-09-14T12:12:33.010Z,26.08
2022-09-14T12:15:04.640Z,26.02
2022-09-14T12:17:41.860Z,26.02
2022-09-14T12:20:40.733Z,26.03
2022-09-14T12:23:22.512Z,26.05
2022-09-14T12:26:12.684Z,26.03
2022-09-14T12:28:48.074Z,26.04
2022-09-14T12:31:58.194Z,26.00
2022-09-14T12:34:29.794Z,26.01
2022-09-14T12:37:09.947Z,26.00
2022-09-14T12:40:23.321Z,25.98
2022-09-14T12:42:54.688Z,25.92
2022-09-14T12:45:51.617Z,25.87
2022-09-14T12:48:57.943Z,25.88
2022-09-14T12:51:42.266Z,25.90
2022-09-14T12:54:28.677Z,25.90
2022-09-14T12:57:09.133Z,25.96
2022-09-14T12:59:46.546Z,26.00
2022-09-14T13:03:03.655Z,26.03
2022-09-14T13:05:34.724Z,26.02
2022-09-14T13:08:10.688Z,26.02
2022-09-14T13:10:45.197Z,26.00
2022-09-14T13:13:17.917Z,26.01
2022-09-14T13:15:53.155Z,26.01
2022-09-14T13:18:36.843Z,26.03
2022-09-14T13:21:19.876Z,26.04
2022-09-14T13:23:50.274Z,26.06
2022-09-14T13:26:23.452Z,26.03
2022-09-14T13:28:54.438Z,26.02
2022-09-14T13:31:30.093Z,26.02
2022-09-14T13:34:00.035Z,25.98
2022-09-14T13:36:31.603Z,25.95
2022-09-14T13:39:02.660Z,25.93
2022-09-14T13:41:33.121Z,25.91
2022-09-14T13:44:02.269Z,25.91
2022-09-14T13:46:31.425Z,25.91
2022-09-14T13:49:00.264Z,25.92
2022-09-14T13:51:30.117Z,25.94
2022-09-14T13:54:16.519Z,25.96
2022-09-14T13:56:45.303Z,26.00
2022-09-14T13:59:20.955Z,26.02
2022-09-14T14:01:56.536Z,26.04
2022-09-14T14:04:29.347Z,26.04
2022-09-14T14:07:05.531Z,26.05
2022-09-14T14:09:46.575Z,26.08
2022-09-14T14:12:24.736Z,26.11
2022-09-14T14:15:01.171Z,26.13
2022-09-14T14:17:38.075Z,26.13
2022-09-14T14:20:33.171Z,26.16
2022-09-14T14:23:15.439Z,26.19
2022-09-14T14:25:51.731Z,26.17
2022-09-14T14:28:24.535Z,26.14
2022-09-14T14:30:54.403Z,26.12
2022-09-14T14:33:23.993Z,26.12
2022-09-14T14:35:54.282Z,26.10
2022-09-14T14:38:24.490Z,26.12
2022-09-14T14:40:55.494Z,26.14
2022-09-14T14:43:26.972Z,26.15
2022-09-14T14:45:57.857Z,26.17
2022-09-14T14:48:27.403Z,26.21
2022-09-14T14:50:56.207Z,26.22
2022-09-14T14:53:29.974Z,26.22
2022-09-14T14:55:58.756Z,26.21
2022-09-14T14:58:28.608Z,26.20
2022-09-14T15:00:57.480Z,26.18
2022-09-14T15:03:26.477Z,26.16
2022-09-14T15:05:55.242Z,26.16
2022-09-14T15:08:23.947Z,26.17
2022-09-14T15:10:56.998Z,26.18
2022-09-14T15:13:25.731Z,26.19
2022-09-14T15:15:54.438Z,26.20
2022-09-14T15:18:23.130Z,26.20
2022-09-14T15:20:51.831Z,26.20
2022-09-14T15:23:20.972Z,26.18
2022-09-14T15:25:52.420Z,26.17
2022-09-14T15:28:21.412Z,26.18
2022-09-14T15:30:51.350Z,26.17
2022-09-14T15:33:20.215Z,26.17
2022-09-14T15:35:55.454Z,26.16
2022-09-14T15:38:24.769Z,26.15
2022-09-14T15:40:53.635Z,26.10
2022-09-14T15:43:23.399Z,26.10
2022-09-14T15:45:52.199Z,26.10
2022-09-14T15:48:20.964Z,26.08
2022-09-14T15:51:11.133Z,26.06
2022-09-14T15:53:39.957Z,26.03
2022-09-14T15:56:11.923Z,26.00
2022-09-14T15:58:44.751Z,25.98
2022-09-14T16:01:18.382Z,25.97
2022-09-14T16:03:47.242Z,25.93
2022-09-14T16:06:16.016Z,25.90
2022-09-14T16:08:44.742Z,25.86
2022-09-14T16:11:13.460Z,25.83
2022-09-14T16:13:42.214Z,25.77
2022-09-14T16:16:13.252Z,25.73
2022-09-14T16:18:43.407Z,25.69
2022-09-14T16:21:15.757Z,25.66
2022-09-14T16:23:51.221Z,25.64
2022-09-14T16:26:22.496Z,25.60
2022-09-14T16:28:52.656Z,25.55
2022-09-14T16:31:24.453Z,25.51
2022-09-14T16:33:55.392Z,25.48
2022-09-14T16:36:26.422Z,25.45
2022-09-14T16:38:57.506Z,25.42
2022-09-14T16:41:27.370Z,25.37
2022-09-14T16:43:56.753Z,25.33
2022-09-14T16:46:26.908Z,25.31
2022-09-14T16:48:58.039Z,25.27
2022-09-14T16:51:29.781Z,25.24
2022-09-14T16:54:00.152Z,25.21
2022-09-14T16:56:32.003Z,25.18
2022-09-14T16:59:01.881Z,25.15
2022-09-14T17:01:32.589Z,25.08
2022-09-14T17:04:07.659Z,25.05
2022-09-14T17:06:38.340Z,25.03
2022-09-14T17:09:08.837Z,24.96
2022-09-14T17:11:39.012Z,24.97
2022-09-14T17:14:09.139Z,24.96
2022-09-14T17:16:37.983Z,24.92
2022-09-14T17:19:06.863Z,24.89
2022-09-14T17:21:38.686Z,24.87
2022-09-14T17:24:08.482Z,24.84
2022-09-14T17:26:40.800Z,24.79
2022-09-14T17:29:10.420Z,24.73
2022-09-14T17:31:42.087Z,24.66
2022-09-14T17:34:12.796Z,24.68
2022-09-14T17:36:41.965Z,24.65
2022-09-14T17:39:12.407Z,24.63
2022-09-14T17:41:43.435Z,24.55
2022-09-14T17:44:14.181Z,24.56
2022-09-14T17:46:52.520Z,24.53
2022-09-14T17:49:23.073Z,24.50
2022-09-14T17:51:52.099Z,24.47
2022-09-14T17:54:21.061Z,24.42
2022-09-14T17:56:49.966Z,24.35
2022-09-14T17:59:20.494Z,24.33
2022-09-14T18:01:49.862Z,24.31
2022-09-14T18:04:19.001Z,24.28
2022-09-14T18:06:49.676Z,24.27
2022-09-14T18:09:20.624Z,24.26
2022-09-14T18:11:50.459Z,24.25
2022-09-14T18:14:19.605Z,24.21
2022-09-14T18:16:48.694Z,24.18
2022-09-14T18:19:17.479Z,24.16
2022-09-14T18:21:51.643Z,24.12
2022-09-14T18:24:21.802Z,24.07
2022-09-14T18:26:50.920Z,24.04
2022-09-14T18:29:20.961Z,24.03
2022-09-14T18:31:50.057Z,24.00
2022-09-14T18:34:19.662Z,23.97
2022-09-14T18:36:50.358Z,23.94
2022-09-14T18:39:19.860Z,23.91
2022-09-14T18:41:53.063Z,23.83
2022-09-14T18:44:22.458Z,23.84
2022-09-14T18:46:51.862Z,23.82
2022-09-14T18:49:20.992Z,23.81
2022-09-14T18:51:49.658Z,23.78
2022-09-14T18:54:18.831Z,23.75
2022-09-14T18:56:48.214Z,23.73
2022-09-14T18:59:17.014Z,23.71
2022-09-14T19:01:45.871Z,23.69
2022-09-14T19:04:15.361Z,23.67
2022-09-14T19:06:46.152Z,23.64
2022-09-14T19:09:14.883Z,23.63
2022-09-14T19:11:43.791Z,23.60
2022-09-14T19:14:13.246Z,23.59
2022-09-14T19:16:42.560Z,23.57
2022-09-14T19:19:13.379Z,23.55
2022-09-14T19:21:43.416Z,23.54
2022-09-14T19:24:14.477Z,23.52
2022-09-14T19:26:46.819Z,23.51
2022-09-14T19:29:18.698Z,23.48
2022-09-14T19:31:50.923Z,23.45
2022-09-14T19:34:20.554Z,23.41
2022-09-14T19:36:49.897Z,23.41
2022-09-14T19:39:18.863Z,23.39
2022-09-14T19:41:47.704Z,23.36
2022-09-14T19:44:17.376Z,23.33
2022-09-14T19:46:46.375Z,23.30
2022-09-14T19:49:16.950Z,23.27
2022-09-14T19:51:46.384Z,23.23
2022-09-14T19:54:15.661Z,23.22
2022-09-14T19:56:46.032Z,23.18
2022-09-14T19:59:15.977Z,23.16
2022-09-14T20:01:45.627Z,23.16
2022-09-14T20:04:17.590Z,23.14
2022-09-14T20:06:47.800Z,23.12
2022-09-14T20:09:18.636Z,23.12
2022-09-14T20:11:50.148Z,23.11
2022-09-14T20:14:21.155Z,23.06
2022-09-14T20:16:52.983Z,23.04
2022-09-14T20:19:24.860Z,23.02
2022-09-14T20:21:54.669Z,23.01
2022-09-14T20:24:26.467Z,23.00
2022-09-14T20:26:58.807Z,22.95
2022-09-14T20:29:30.079Z,22.88
2022-09-14T20:31:59.582Z,22.82
2022-09-14T20:34:29.297Z,22.76
2022-09-14T20:37:00.199Z,22.70
2022-09-14T20:39:30.021Z,22.69
2022-09-14T20:41:58.831Z,22.63
2022-09-14T20:44:27.616Z,22.62
2022-09-14T20:46:56.567Z,22.61
2022-09-14T20:49:26.092Z,22.58
2022-09-14T20:51:56.728Z,22.53
2022-09-14T20:54:25.599Z,22.54
2022-09-14T20:56:54.303Z,22.51
2022-09-14T20:59:23.305Z,22.51
2022-09-14T21:01:52.906Z,22.52
2022-09-14T21:04:23.879Z,22.51
2022-09-14T21:06:54.677Z,22.48
2022-09-14T21:09:25.086Z,22.43
2022-09-14T21:11:54.102Z,22.39
2022-09-14T21:14:23.109Z,22.35
2022-09-14T21:16:56.103Z,22.31
2022-09-14T21:19:26.807Z,22.26
2022-09-14T21:21:56.425Z,22.22
2022-09-14T21:24:25.879Z,22.18
2022-09-14T21:26:56.735Z,22.12
2022-09-14T21:29:25.731Z,22.08
2022-09-14T21:31:54.435Z,22.04
2022-09-14T21:34:23.167Z,22.00
2022-09-14T21:36:52.624Z,21.96
2022-09-14T21:39:26.918Z,21.93
2022-09-14T21:41:59.248Z,21.90
2022-09-14T21:44:33.149Z,21.87
2022-09-14T21:47:02.704Z,21.86
2022-09-14T21:49:31.864Z,21.85
2022-09-14T21:52:00.784Z,21.82
2022-09-14T21:54:29.639Z,21.80
2022-09-14T21:56:58.476Z,21.75
2022-09-14T21:59:27.255Z,21.69
2022-09-14T22:01:56.059Z,21.68
2022-09-14T22:04:26.281Z,21.64
2022-09-14T22:06:56.607Z,21.55
2022-09-14T22:09:28.151Z,21.50
2022-09-14T22:11:57.672Z,21.47
2022-09-14T22:14:28.499Z,21.40
2022-09-14T22:16:57.353Z,21.32
2022-09-14T22:19:27.765Z,21.24
2022-09-14T22:21:57.249Z,21.21
2022-09-14T22:24:33.541Z,21.20
2022-09-14T22:27:06.183Z,21.15
2022-09-14T22:29:35.249Z,21.14
2022-09-14T22:32:06.630Z,21.12
2022-09-14T22:34:35.475Z,21.08
2022-09-14T22:37:04.204Z,20.99
2022-09-14T22:39:32.932Z,21.02
2022-09-14T22:42:01.975Z,21.00
2022-09-14T22:44:31.272Z,20.98
2022-09-14T22:46:59.988Z,20.92
2022-09-14T22:49:28.687Z,20.86
2022-09-14T22:51:57.480Z,20.77
2022-09-14T22:54:26.292Z,20.69
2022-09-14T22:56:55.028Z,20.68
2022-09-14T22:59:24.032Z,20.67
2022-09-14T23:01:52.958Z,20.68
2022-09-14T23:04:21.881Z,20.67
2022-09-14T23:06:50.579Z,20.64
2022-09-14T23:09:21.846Z,20.57
2022-09-14T23:11:51.287Z,20.54
2022-09-14T23:14:20.001Z,20.52
2022-09-14T23:16:48.797Z,20.51
2022-09-14T23:19:18.701Z,20.52
2022-09-14T23:21:47.520Z,20.51
2022-09-14T23:24:16.243Z,20.48
2022-09-14T23:26:44.946Z,20.47
2022-09-14T23:29:16.329Z,20.48
2022-09-14T23:31:46.236Z,20.49
2022-09-14T23:34:15.183Z,20.51
2022-09-14T23:36:44.020Z,20.54
2022-09-14T23:39:12.774Z,20.57
2022-09-14T23:41:41.641Z,20.60
2022-09-14T23:44:12.073Z,20.63
2022-09-14T23:46:41.092Z,20.64
2022-09-14T23:49:11.691Z,20.65
2022-09-14T23:51:41.471Z,20.67
2022-09-14T23:54:11.339Z,20.71
2022-09-14T23:56:40.357Z,20.74
2022-09-14T23:59:12.059Z,20.77
